sensor_id;sensor_type;location;lat;lon;timestamp;pressure;altitude;pressure_sealevel;temperature;humidity
72210;BME280;60113;48.762;12.302;2023-09-08T00:01:11;97606.50;;;9.94;70.38
72210;BME280;60113;48.762;12.302;2023-09-08T00:03:37;97602.44;;;9.90;70.85
72210;BME280;60113;48.762;12.302;2023-09-08T00:06:14;97596.63;;;9.85;71.94
72210;BME280;60113;48.762;12.302;2023-09-08T00:08:42;97594.22;;;9.82;72.37
72210;BME280;60113;48.762;12.302;2023-09-08T00:11:10;97593.59;;;9.78;73.19
72210;BME280;60113;48.762;12.302;2023-09-08T00:13:36;97599.06;;;9.75;72.71
72210;BME280;60113;48.762;12.302;2023-09-08T00:16:04;97603.66;;;9.71;72.76
72210;BME280;60113;48.762;12.302;2023-09-08T00:18:32;97596.94;;;9.67;72.66
72210;BME280;60113;48.762;12.302;2023-09-08T00:21:16;97602.41;;;9.64;69.08
72210;BME280;60113;48.762;12.302;2023-09-08T00:23:44;97601.75;;;9.60;67.47
72210;BME280;60113;48.762;12.302;2023-09-08T00:26:10;97603.72;;;9.57;68.09
72210;BME280;60113;48.762;12.302;2023-09-08T00:28:41;97604.69;;;9.56;71.07
72210;BME280;60113;48.762;12.302;2023-09-08T00:31:06;97600.38;;;9.55;72.48
72210;BME280;60113;48.762;12.302;2023-09-08T00:33:37;97597.78;;;9.55;72.30
72210;BME280;60113;48.762;12.302;2023-09-08T00:36:08;97602.38;;;9.51;72.53
72210;BME280;60113;48.762;12.302;2023-09-08T00:38:40;97588.59;;;9.47;72.74
72210;BME280;60113;48.762;12.302;2023-09-08T00:41:12;97601.19;;;9.42;72.80
72210;BME280;60113;48.762;12.302;2023-09-08T00:43:43;97597.81;;;9.40;73.94
72210;BME280;60113;48.762;12.302;2023-09-08T00:46:17;97596.16;;;9.39;71.64
72210;BME280;60113;48.762;12.302;2023-09-08T00:48:43;97597.19;;;9.36;69.03
72210;BME280;60113;48.762;12.302;2023-09-08T00:51:08;97586.91;;;9.33;71.83
72210;BME280;60113;48.762;12.302;2023-09-08T00:53:37;97591.50;;;9.30;70.01
72210;BME280;60113;48.762;12.302;2023-09-08T00:56:12;97590.03;;;9.25;72.79
72210;BME280;60113;48.762;12.302;2023-09-08T00:58:46;97588.63;;;9.20;73.36
72210;BME280;60113;48.762;12.302;2023-09-08T01:01:14;97591.47;;;9.17;71.85
72210;BME280;60113;48.762;12.302;2023-09-08T01:03:52;97586.50;;;9.12;74.66
72210;BME280;60113;48.762;12.302;2023-09-08T01:06:21;97585.91;;;9.08;74.10
72210;BME280;60113;48.762;12.302;2023-09-08T01:08:49;97582.53;;;9.06;72.44
72210;BME280;60113;48.762;12.302;2023-09-08T01:11:19;97583.56;;;9.04;73.39
72210;BME280;60113;48.762;12.302;2023-09-08T01:13:48;97583.75;;;9.00;75.25
72210;BME280;60113;48.762;12.302;2023-09-08T01:16:18;97569.91;;;8.98;71.25
72210;BME280;60113;48.762;12.302;2023-09-08T01:18:45;97578.81;;;8.96;73.31
72210;BME280;60113;48.762;12.302;2023-09-08T01:26:44;97584.84;;;8.83;74.52
72210;BME280;60113;48.762;12.302;2023-09-08T01:29:14;97581.47;;;8.81;70.23
72210;BME280;60113;48.762;12.302;2023-09-08T01:31:41;97582.50;;;8.79;73.46
72210;BME280;60113;48.762;12.302;2023-09-08T01:34:07;97585.34;;;8.75;75.63
72210;BME280;60113;48.762;12.302;2023-09-08T01:36:42;97585.44;;;8.74;74.31
72210;BME280;60113;48.762;12.302;2023-09-08T01:39:12;97582.06;;;8.72;75.44
72210;BME280;60113;48.762;12.302;2023-09-08T01:41:37;97583.00;;;8.71;71.48
72210;BME280;60113;48.762;12.302;2023-09-08T01:44:14;97578.69;;;8.70;71.69
72210;BME280;60113;48.762;12.302;2023-09-08T01:46:42;97577.66;;;8.72;70.74
72210;BME280;60113;48.762;12.302;2023-09-08T01:49:08;97581.84;;;8.75;76.22
72210;BME280;60113;48.762;12.302;2023-09-08T01:51:45;97582.50;;;8.79;75.78
72210;BME280;60113;48.762;12.302;2023-09-08T01:54:22;97579.03;;;8.78;75.43
72210;BME280;60113;48.762;12.302;2023-09-08T01:56:48;97578.28;;;8.76;73.62
72210;BME280;60113;48.762;12.302;2023-09-08T01:59:22;97569.81;;;8.72;74.58
72210;BME280;60113;48.762;12.302;2023-09-08T02:01:47;97563.72;;;8.72;74.19
72210;BME280;60113;48.762;12.302;2023-09-08T02:04:13;97568.19;;;8.70;74.35
72210;BME280;60113;48.762;12.302;2023-09-08T02:06:44;97564.09;;;8.66;75.55
72210;BME280;60113;48.762;12.302;2023-09-08T02:09:21;97558.34;;;8.60;76.65
72210;BME280;60113;48.762;12.302;2023-09-08T02:11:50;97560.19;;;8.58;76.08
72210;BME280;60113;48.762;12.302;2023-09-08T02:14:18;97558.78;;;8.53;74.35
72210;BME280;60113;48.762;12.302;2023-09-08T02:16:46;97551.75;;;8.53;75.01
72210;BME280;60113;48.762;12.302;2023-09-08T02:19:11;97561.59;;;8.49;76.90
72210;BME280;60113;48.762;12.302;2023-09-08T02:21:36;97557.47;;;8.45;76.30
72210;BME280;60113;48.762;12.302;2023-09-08T02:24:02;97556.84;;;8.42;75.57
72210;BME280;60113;48.762;12.302;2023-09-08T02:26:27;97558.78;;;8.38;75.43
72210;BME280;60113;48.762;12.302;2023-09-08T02:28:53;97566.75;;;8.36;76.33
72210;BME280;60113;48.762;12.302;2023-09-08T02:31:18;97559.84;;;8.35;74.00
72210;BME280;60113;48.762;12.302;2023-09-08T02:33:45;97560.94;;;8.31;76.53
72210;BME280;60113;48.762;12.302;2023-09-08T02:36:22;97559.38;;;8.29;76.75
72210;BME280;60113;48.762;12.302;2023-09-08T02:38:55;97558.50;;;8.28;71.96
72210;BME280;60113;48.762;12.302;2023-09-08T02:41:20;97550.66;;;8.28;73.60
72210;BME280;60113;48.762;12.302;2023-09-08T02:43:46;97549.66;;;8.31;73.00
72210;BME280;60113;48.762;12.302;2023-09-08T02:46:15;97547.75;;;8.33;77.82
72210;BME280;60113;48.762;12.302;2023-09-08T02:48:40;97549.34;;;8.35;81.09
72210;BME280;60113;48.762;12.302;2023-09-08T02:51:18;97559.34;;;8.43;85.72
72210;BME280;60113;48.762;12.302;2023-09-08T02:53:46;97557.38;;;8.47;88.78
72210;BME280;60113;48.762;12.302;2023-09-08T02:56:20;97558.03;;;8.50;80.95
72210;BME280;60113;48.762;12.302;2023-09-08T02:58:48;97559.16;;;8.46;77.03
72210;BME280;60113;48.762;12.302;2023-09-08T03:01:23;97560.47;;;8.39;77.65
72210;BME280;60113;48.762;12.302;2023-09-08T03:03:48;97553.94;;;8.32;77.28
72210;BME280;60113;48.762;12.302;2023-09-08T03:06:15;97561.31;;;8.25;74.28
72210;BME280;60113;48.762;12.302;2023-09-08T03:08:40;97549.56;;;8.18;77.26
72210;BME280;60113;48.762;12.302;2023-09-08T03:11:07;97551.59;;;8.12;75.90
72210;BME280;60113;48.762;12.302;2023-09-08T03:13:33;97554.50;;;8.08;73.43
72210;BME280;60113;48.762;12.302;2023-09-08T03:16:08;97554.03;;;8.01;75.20
72210;BME280;60113;48.762;12.302;2023-09-08T03:18:37;97551.72;;;7.96;73.55
72210;BME280;60113;48.762;12.302;2023-09-08T03:21:05;97561.59;;;7.91;76.16
72210;BME280;60113;48.762;12.302;2023-09-08T03:23:40;97560.03;;;7.88;75.34
72210;BME280;60113;48.762;12.302;2023-09-08T03:26:09;97560.13;;;7.87;74.36
72210;BME280;60113;48.762;12.302;2023-09-08T03:28:38;97546.28;;;7.85;76.15
72210;BME280;60113;48.762;12.302;2023-09-08T03:31:12;97558.81;;;7.80;75.52
72210;BME280;60113;48.762;12.302;2023-09-08T03:33:38;97562.53;;;7.75;75.40
72210;BME280;60113;48.762;12.302;2023-09-08T03:36:06;97560.28;;;7.69;76.09
72210;BME280;60113;48.762;12.302;2023-09-08T03:38:35;97561.47;;;7.63;75.49
72210;BME280;60113;48.762;12.302;2023-09-08T03:41:06;97561.00;;;7.57;74.51
72210;BME280;60113;48.762;12.302;2023-09-08T03:43:34;97562.19;;;7.51;75.76
72210;BME280;60113;48.762;12.302;2023-09-08T03:46:22;97568.56;;;7.47;72.39
72210;BME280;60113;48.762;12.302;2023-09-08T03:48:52;97564.41;;;7.43;79.54
72210;BME280;60113;48.762;12.302;2023-09-08T03:51:23;97565.53;;;7.38;80.28
72210;BME280;60113;48.762;12.302;2023-09-08T03:53:49;97560.41;;;7.37;80.97
72210;BME280;60113;48.762;12.302;2023-09-08T03:56:20;97570.84;;;7.37;79.81
72210;BME280;60113;48.762;12.302;2023-09-08T03:58:49;97574.31;;;7.37;76.48
72210;BME280;60113;48.762;12.302;2023-09-08T04:01:23;97571.69;;;7.37;81.33
72210;BME280;60113;48.762;12.302;2023-09-08T04:03:51;97570.66;;;7.40;89.06
72210;BME280;60113;48.762;12.302;2023-09-08T04:06:17;97571.25;;;7.45;87.28
72210;BME280;60113;48.762;12.302;2023-09-08T04:08:42;97575.38;;;7.49;78.01
72210;BME280;60113;48.762;12.302;2023-09-08T04:11:10;97571.09;;;7.48;78.49
72210;BME280;60113;48.762;12.302;2023-09-08T04:13:38;97573.78;;;7.47;75.92
72210;BME280;60113;48.762;12.302;2023-09-08T04:16:03;97580.09;;;7.43;77.23
72210;BME280;60113;48.762;12.302;2023-09-08T04:18:31;97590.00;;;7.37;78.38
72210;BME280;60113;48.762;12.302;2023-09-08T04:21:12;97594.00;;;7.29;77.83
72210;BME280;60113;48.762;12.302;2023-09-08T04:23:50;97585.75;;;7.20;77.03
72210;BME280;60113;48.762;12.302;2023-09-08T04:26:21;97589.56;;;7.15;76.08
72210;BME280;60113;48.762;12.302;2023-09-08T04:28:59;97588.03;;;7.10;80.90
72210;BME280;60113;48.762;12.302;2023-09-08T04:31:27;97593.41;;;7.07;82.51
72210;BME280;60113;48.762;12.302;2023-09-08T04:33:53;97583.06;;;7.06;83.21
72210;BME280;60113;48.762;12.302;2023-09-08T04:36:22;97594.53;;;7.03;84.95
72210;BME280;60113;48.762;12.302;2023-09-08T04:38:53;97587.63;;;7.02;85.73
72210;BME280;60113;48.762;12.302;2023-09-08T04:41:18;97590.16;;;7.04;81.70
72210;BME280;60113;48.762;12.302;2023-09-08T04:43:44;97590.97;;;7.04;78.22
72210;BME280;60113;48.762;12.302;2023-09-08T04:46:09;97595.28;;;7.05;72.78
72210;BME280;60113;48.762;12.302;2023-09-08T04:48:46;97592.78;;;7.04;77.19
72210;BME280;60113;48.762;12.302;2023-09-08T04:51:11;97598.91;;;7.03;77.08
72210;BME280;60113;48.762;12.302;2023-09-08T04:53:48;97599.06;;;6.99;77.48
72210;BME280;60113;48.762;12.302;2023-09-08T04:56:20;97599.16;;;6.98;77.29
72210;BME280;60113;48.762;12.302;2023-09-08T04:58:48;97606.19;;;6.97;75.58
72210;BME280;60113;48.762;12.302;2023-09-08T05:01:13;97597.47;;;6.97;75.61
72210;BME280;60113;48.762;12.302;2023-09-08T05:03:41;97604.47;;;6.96;76.29
72210;BME280;60113;48.762;12.302;2023-09-08T05:06:22;97603.47;;;6.99;76.76
72210;BME280;60113;48.762;12.302;2023-09-08T05:08:47;97600.69;;;7.02;79.18
72210;BME280;60113;48.762;12.302;2023-09-08T05:11:19;97607.50;;;7.05;80.54
72210;BME280;60113;48.762;12.302;2023-09-08T05:13:45;97601.19;;;7.09;80.19
72210;BME280;60113;48.762;12.302;2023-09-08T05:16:17;97604.38;;;7.14;77.29
72210;BME280;60113;48.762;12.302;2023-09-08T05:18:59;97611.88;;;7.20;78.54
72210;BME280;60113;48.762;12.302;2023-09-08T05:21:25;97609.94;;;7.24;78.05
72210;BME280;60113;48.762;12.302;2023-09-08T05:23:50;97608.06;;;7.26;77.56
72210;BME280;60113;48.762;12.302;2023-09-08T05:26:15;97611.44;;;7.28;77.31
72210;BME280;60113;48.762;12.302;2023-09-08T05:28:46;97614.06;;;7.28;77.12
72210;BME280;60113;48.762;12.302;2023-09-08T05:31:12;97621.72;;;7.31;76.77
72210;BME280;60113;48.762;12.302;2023-09-08T05:33:46;97618.84;;;7.36;80.44
72210;BME280;60113;48.762;12.302;2023-09-08T05:36:11;97626.34;;;7.42;75.80
72210;BME280;60113;48.762;12.302;2023-09-08T05:38:49;97626.09;;;7.47;77.27
72210;BME280;60113;48.762;12.302;2023-09-08T05:41:17;97622.25;;;7.53;77.84
72210;BME280;60113;48.762;12.302;2023-09-08T05:43:45;97620.22;;;7.58;77.32
72210;BME280;60113;48.762;12.302;2023-09-08T05:46:11;97621.56;;;7.65;77.99
72210;BME280;60113;48.762;12.302;2023-09-08T05:48:54;97617.19;;;7.80;83.58
72210;BME280;60113;48.762;12.302;2023-09-08T05:51:19;97621.22;;;7.86;79.01
72210;BME280;60113;48.762;12.302;2023-09-08T05:53:47;97631.63;;;8.02;78.95
72210;BME280;60113;48.762;12.302;2023-09-08T05:56:13;97634.06;;;8.20;79.05
72210;BME280;60113;48.762;12.302;2023-09-08T05:58:41;97627.25;;;8.46;79.87
72210;BME280;60113;48.762;12.302;2023-09-08T06:01:09;97625.25;;;8.94;82.11
72210;BME280;60113;48.762;12.302;2023-09-08T06:03:40;97633.53;;;9.56;82.32
72210;BME280;60113;48.762;12.302;2023-09-08T06:06:24;97633.31;;;10.25;83.27
72210;BME280;60113;48.762;12.302;2023-09-08T06:08:56;97629.97;;;10.87;83.43
72210;BME280;60113;48.762;12.302;2023-09-08T06:11:21;97628.63;;;11.43;83.67
72210;BME280;60113;48.762;12.302;2023-09-08T06:13:50;97620.19;;;11.98;84.80
72210;BME280;60113;48.762;12.302;2023-09-08T06:16:15;97624.19;;;12.50;83.51
72210;BME280;60113;48.762;12.302;2023-09-08T06:18:40;97624.03;;;12.97;84.00
72210;BME280;60113;48.762;12.302;2023-09-08T06:21:09;97621.72;;;13.48;83.72
72210;BME280;60113;48.762;12.302;2023-09-08T06:23:37;97620.25;;;13.88;83.51
72210;BME280;60113;48.762;12.302;2023-09-08T06:26:15;97618.41;;;14.32;83.28
72210;BME280;60113;48.762;12.302;2023-09-08T06:28:43;97622.38;;;14.79;83.59
72210;BME280;60113;48.762;12.302;2023-09-08T06:31:09;97623.88;;;15.22;83.62
72210;BME280;60113;48.762;12.302;2023-09-08T06:33:37;97618.00;;;15.58;83.67
72210;BME280;60113;48.762;12.302;2023-09-08T06:36:15;97626.34;;;15.93;84.06
72210;BME280;60113;48.762;12.302;2023-09-08T06:38:49;97621.25;;;16.30;83.16
72210;BME280;60113;48.762;12.302;2023-09-08T06:41:17;97611.69;;;16.57;83.67
72210;BME280;60113;48.762;12.302;2023-09-08T06:43:44;97614.88;;;16.88;84.29
72210;BME280;60113;48.762;12.302;2023-09-08T06:46:09;97616.25;;;17.21;83.99
72210;BME280;60113;48.762;12.302;2023-09-08T06:48:34;97613.97;;;17.44;82.49
72210;BME280;60113;48.762;12.302;2023-09-08T06:51:00;97617.47;;;17.63;83.02
72210;BME280;60113;48.762;12.302;2023-09-08T06:53:31;97617.16;;;17.84;82.23
72210;BME280;60113;48.762;12.302;2023-09-08T06:55:57;97613.28;;;18.05;82.69
72210;BME280;60113;48.762;12.302;2023-09-08T06:58:25;97611.97;;;18.28;84.06
72210;BME280;60113;48.762;12.302;2023-09-08T07:00:54;97609.13;;;18.56;83.78
72210;BME280;60113;48.762;12.302;2023-09-08T07:03:25;97622.88;;;18.86;83.89
72210;BME280;60113;48.762;12.302;2023-09-08T07:05:51;97617.66;;;19.11;83.67
72210;BME280;60113;48.762;12.302;2023-09-08T07:08:17;97620.88;;;19.31;84.98
72210;BME280;60113;48.762;12.302;2023-09-08T07:10:43;97620.03;;;19.47;84.60
72210;BME280;60113;48.762;12.302;2023-09-08T07:13:09;97619.72;;;19.59;84.58
72210;BME280;60113;48.762;12.302;2023-09-08T07:15:34;97622.41;;;19.67;81.51
72210;BME280;60113;48.762;12.302;2023-09-08T07:17:59;97619.75;;;19.84;82.90
72210;BME280;60113;48.762;12.302;2023-09-08T07:20:34;97613.06;;;20.05;80.62
72210;BME280;60113;48.762;12.302;2023-09-08T07:23:03;97608.72;;;20.20;79.66
72210;BME280;60113;48.762;12.302;2023-09-08T07:25:37;97609.66;;;20.44;79.18
72210;BME280;60113;48.762;12.302;2023-09-08T07:28:15;97606.94;;;20.61;78.67
72210;BME280;60113;48.762;12.302;2023-09-08T07:30:46;97604.34;;;20.76;79.04
72210;BME280;60113;48.762;12.302;2023-09-08T07:33:14;97609.16;;;20.97;79.21
72210;BME280;60113;48.762;12.302;2023-09-08T07:35:42;97598.53;;;21.13;76.53
72210;BME280;60113;48.762;12.302;2023-09-08T07:38:16;97601.59;;;21.33;78.52
72210;BME280;60113;48.762;12.302;2023-09-08T07:40:42;97597.91;;;21.57;78.52
72210;BME280;60113;48.762;12.302;2023-09-08T07:43:07;97595.22;;;21.81;78.57
72210;BME280;60113;48.762;12.302;2023-09-08T07:45:41;97602.19;;;22.05;76.90
72210;BME280;60113;48.762;12.302;2023-09-08T07:48:09;97608.41;;;22.36;73.58
72210;BME280;60113;48.762;12.302;2023-09-08T07:50:52;97592.38;;;22.66;74.23
72210;BME280;60113;48.762;12.302;2023-09-08T07:53:23;97600.16;;;22.98;73.93
72210;BME280;60113;48.762;12.302;2023-09-08T07:55:53;97595.41;;;23.15;69.46
72210;BME280;60113;48.762;12.302;2023-09-08T07:58:37;97595.28;;;23.23;70.44
72210;BME280;60113;48.762;12.302;2023-09-08T08:01:14;97599.78;;;23.38;70.00
72210;BME280;60113;48.762;12.302;2023-09-08T08:03:42;97598.59;;;23.41;68.25
72210;BME280;60113;48.762;12.302;2023-09-08T08:06:07;97589.31;;;23.43;66.71
72210;BME280;60113;48.762;12.302;2023-09-08T08:08:42;97595.94;;;23.47;66.54
72210;BME280;60113;48.762;12.302;2023-09-08T08:11:19;97596.88;;;23.55;66.14
72210;BME280;60113;48.762;12.302;2023-09-08T08:13:45;97581.59;;;23.55;65.34
72210;BME280;60113;48.762;12.302;2023-09-08T08:16:23;97591.25;;;23.50;64.02
72210;BME280;60113;48.762;12.302;2023-09-08T08:18:51;97591.88;;;23.52;63.33
72210;BME280;60113;48.762;12.302;2023-09-08T08:21:16;97590.34;;;23.42;62.32
72210;BME280;60113;48.762;12.302;2023-09-08T08:23:42;97586.81;;;23.42;62.50
72210;BME280;60113;48.762;12.302;2023-09-08T08:26:22;97583.97;;;23.43;61.86
72210;BME280;60113;48.762;12.302;2023-09-08T08:28:49;97585.03;;;23.49;61.31
72210;BME280;60113;48.762;12.302;2023-09-08T08:31:23;97588.28;;;23.66;61.46
72210;BME280;60113;48.762;12.302;2023-09-08T08:33:49;97580.41;;;23.87;61.51
72210;BME280;60113;48.762;12.302;2023-09-08T08:36:14;97585.28;;;24.05;61.19
72210;BME280;60113;48.762;12.302;2023-09-08T08:38:49;97578.56;;;24.16;60.79
72210;BME280;60113;48.762;12.302;2023-09-08T08:41:28;97583.28;;;24.14;58.90
72210;BME280;60113;48.762;12.302;2023-09-08T08:43:55;97576.06;;;24.14;59.54
72210;BME280;60113;48.762;12.302;2023-09-08T08:46:23;97579.44;;;24.23;59.40
72210;BME280;60113;48.762;12.302;2023-09-08T08:48:53;97580.31;;;24.30;57.97
72210;BME280;60113;48.762;12.302;2023-09-08T08:51:22;97572.53;;;24.42;54.25
72210;BME280;60113;48.762;12.302;2023-09-08T08:53:53;97575.31;;;24.63;58.51
72210;BME280;60113;48.762;12.302;2023-09-08T08:56:23;97570.22;;;24.81;59.23
72210;BME280;60113;48.762;12.302;2023-09-08T08:58:51;97567.97;;;24.85;57.87
72210;BME280;60113;48.762;12.302;2023-09-08T09:01:24;97566.56;;;24.89;57.85
72210;BME280;60113;48.762;12.302;2023-09-08T09:03:51;97567.84;;;25.00;58.09
72210;BME280;60113;48.762;12.302;2023-09-08T09:06:36;97572.19;;;25.08;57.08
72210;BME280;60113;48.762;12.302;2023-09-08T09:09:04;97573.88;;;25.29;57.47
72210;BME280;60113;48.762;12.302;2023-09-08T09:11:33;97573.69;;;25.44;57.52
72210;BME280;60113;48.762;12.302;2023-09-08T09:14:01;97567.88;;;25.20;56.36
72210;BME280;60113;48.762;12.302;2023-09-08T09:16:43;97567.06;;;25.40;56.47
72210;BME280;60113;48.762;12.302;2023-09-08T09:19:21;97569.56;;;25.42;46.19
72210;BME280;60113;48.762;12.302;2023-09-08T09:22:02;97566.50;;;25.79;56.06
72210;BME280;60113;48.762;12.302;2023-09-08T09:24:33;97561.53;;;26.03;55.56
72210;BME280;60113;48.762;12.302;2023-09-08T09:27:01;97557.75;;;26.17;50.93
72210;BME280;60113;48.762;12.302;2023-09-08T09:29:49;97558.38;;;26.13;54.41
72210;BME280;60113;48.762;12.302;2023-09-08T09:32:23;97559.81;;;26.22;54.88
72210;BME280;60113;48.762;12.302;2023-09-08T09:35:08;97556.72;;;26.39;54.89
72210;BME280;60113;48.762;12.302;2023-09-08T09:37:52;97550.25;;;26.46;52.43
72210;BME280;60113;48.762;12.302;2023-09-08T09:40:21;97552.03;;;26.66;54.71
72210;BME280;60113;48.762;12.302;2023-09-08T09:42:49;97551.91;;;26.93;54.65
72210;BME280;60113;48.762;12.302;2023-09-08T09:45:18;97549.84;;;26.89;51.83
72210;BME280;60113;48.762;12.302;2023-09-08T09:48:13;97552.75;;;26.48;51.93
72210;BME280;60113;48.762;12.302;2023-09-08T09:50:48;97549.41;;;26.53;54.10
72210;BME280;60113;48.762;12.302;2023-09-08T09:53:17;97564.69;;;26.66;54.28
72210;BME280;60113;48.762;12.302;2023-09-08T09:55:44;97557.69;;;26.97;53.87
72210;BME280;60113;48.762;12.302;2023-09-08T09:58:10;97557.88;;;27.09;53.07
72210;BME280;60113;48.762;12.302;2023-09-08T10:00:39;97561.09;;;27.25;52.67
72210;BME280;60113;48.762;12.302;2023-09-08T10:03:13;97563.31;;;27.34;51.92
72210;BME280;60113;48.762;12.302;2023-09-08T10:05:48;97558.38;;;27.25;51.71
72210;BME280;60113;48.762;12.302;2023-09-08T10:08:14;97563.25;;;27.09;51.63
72210;BME280;60113;48.762;12.302;2023-09-08T10:10:39;97554.03;;;27.24;51.76
72210;BME280;60113;48.762;12.302;2023-09-08T10:13:09;97561.81;;;27.39;48.69
72210;BME280;60113;48.762;12.302;2023-09-08T10:15:37;97557.69;;;27.68;50.77
72210;BME280;60113;48.762;12.302;2023-09-08T10:18:13;97553.31;;;27.93;45.13
72210;BME280;60113;48.762;12.302;2023-09-08T10:20:44;97557.47;;;28.14;50.90
72210;BME280;60113;48.762;12.302;2023-09-08T10:23:44;97555.53;;;28.21;41.43
72210;BME280;60113;48.762;12.302;2023-09-08T10:26:16;97547.28;;;28.16;49.89
72210;BME280;60113;48.762;12.302;2023-09-08T10:28:43;97546.88;;;28.13;50.12
72210;BME280;60113;48.762;12.302;2023-09-08T10:31:09;97543.28;;;28.19;49.67
72210;BME280;60113;48.762;12.302;2023-09-08T10:33:35;97540.88;;;27.66;44.57
72210;BME280;60113;48.762;12.302;2023-09-08T10:36:02;97546.94;;;27.29;49.08
72210;BME280;60113;48.762;12.302;2023-09-08T10:38:34;97544.13;;;27.17;49.80
72210;BME280;60113;48.762;12.302;2023-09-08T10:43:40;97542.13;;;27.70;50.23
72210;BME280;60113;48.762;12.302;2023-09-08T10:46:12;97546.81;;;28.01;46.29
72210;BME280;60113;48.762;12.302;2023-09-08T10:48:48;97541.94;;;28.28;49.58
72210;BME280;60113;48.762;12.302;2023-09-08T10:51:20;97527.66;;;28.47;49.28
72210;BME280;60113;48.762;12.302;2023-09-08T10:53:50;97524.44;;;28.68;49.00
72210;BME280;60113;48.762;12.302;2023-09-08T10:56:16;97529.81;;;28.87;48.82
72210;BME280;60113;48.762;12.302;2023-09-08T10:58:51;97523.13;;;29.08;48.82
72210;BME280;60113;48.762;12.302;2023-09-08T11:01:23;97522.69;;;29.24;48.40
72210;BME280;60113;48.762;12.302;2023-09-08T11:03:54;97529.88;;;29.42;48.57
72210;BME280;60113;48.762;12.302;2023-09-08T11:06:22;97531.13;;;29.58;48.34
72210;BME280;60113;48.762;12.302;2023-09-08T11:08:51;97530.06;;;29.71;48.19
72210;BME280;60113;48.762;12.302;2023-09-08T11:11:25;97525.13;;;29.92;47.98
72210;BME280;60113;48.762;12.302;2023-09-08T11:14:09;97527.00;;;29.79;46.67
72210;BME280;60113;48.762;12.302;2023-09-08T11:16:37;97525.53;;;29.41;47.32
72210;BME280;60113;48.762;12.302;2023-09-08T11:19:05;97521.88;;;29.35;46.89
72210;BME280;60113;48.762;12.302;2023-09-08T11:21:31;97524.28;;;29.01;46.47
72210;BME280;60113;48.762;12.302;2023-09-08T11:24:03;97521.00;;;29.11;47.13
72210;BME280;60113;48.762;12.302;2023-09-08T11:26:48;97519.97;;;29.24;46.81
72210;BME280;60113;48.762;12.302;2023-09-08T11:29:18;97522.53;;;29.18;46.93
72210;BME280;60113;48.762;12.302;2023-09-08T11:31:43;97522.06;;;29.10;46.94
72210;BME280;60113;48.762;12.302;2023-09-08T11:34:16;97522.47;;;29.25;47.13
72210;BME280;60113;48.762;12.302;2023-09-08T11:36:48;97515.94;;;29.57;47.71
72210;BME280;60113;48.762;12.302;2023-09-08T11:39:14;97513.47;;;29.79;46.91
72210;BME280;60113;48.762;12.302;2023-09-08T11:41:39;97509.13;;;29.78;46.72
72210;BME280;60113;48.762;12.302;2023-09-08T11:44:19;97511.25;;;29.64;43.61
72210;BME280;60113;48.762;12.302;2023-09-08T11:46:46;97506.47;;;29.36;45.74
72210;BME280;60113;48.762;12.302;2023-09-08T11:49:18;97509.53;;;29.39;45.82
72210;BME280;60113;48.762;12.302;2023-09-08T11:51:50;97513.31;;;29.50;46.57
72210;BME280;60113;48.762;12.302;2023-09-08T11:54:20;97502.41;;;29.69;46.17
72210;BME280;60113;48.762;12.302;2023-09-08T11:56:46;97499.72;;;29.81;45.50
72210;BME280;60113;48.762;12.302;2023-09-08T11:59:12;97504.97;;;29.52;44.89
72210;BME280;60113;48.762;12.302;2023-09-08T12:01:50;97498.09;;;29.25;46.23
72210;BME280;60113;48.762;12.302;2023-09-08T12:04:19;97495.56;;;29.54;44.39
72210;BME280;60113;48.762;12.302;2023-09-08T12:06:52;97500.28;;;29.95;41.33
72210;BME280;60113;48.762;12.302;2023-09-08T12:09:22;97505.91;;;30.29;44.54
72210;BME280;60113;48.762;12.302;2023-09-08T12:11:50;97491.06;;;30.32;44.85
72210;BME280;60113;48.762;12.302;2023-09-08T12:14:18;97495.16;;;30.35;44.84
72210;BME280;60113;48.762;12.302;2023-09-08T12:16:47;97497.31;;;30.20;43.53
72210;BME280;60113;48.762;12.302;2023-09-08T12:19:30;97496.72;;;30.06;40.02
72210;BME280;60113;48.762;12.302;2023-09-08T12:22:00;97500.25;;;30.19;42.98
72210;BME280;60113;48.762;12.302;2023-09-08T12:27:24;97495.97;;;30.47;45.25
72210;BME280;60113;48.762;12.302;2023-09-08T12:29:55;97496.06;;;30.52;44.04
72210;BME280;60113;48.762;12.302;2023-09-08T12:32:22;97501.78;;;30.39;44.22
72210;BME280;60113;48.762;12.302;2023-09-08T12:34:51;97500.69;;;30.40;44.41
72210;BME280;60113;48.762;12.302;2023-09-08T12:37:21;97494.56;;;30.44;43.94
72210;BME280;60113;48.762;12.302;2023-09-08T12:39:50;97496.97;;;30.29;43.73
72210;BME280;60113;48.762;12.302;2023-09-08T12:42:16;97486.84;;;30.24;44.63
72210;BME280;60113;48.762;12.302;2023-09-08T12:44:44;97489.44;;;30.31;44.50
72210;BME280;60113;48.762;12.302;2023-09-08T12:47:12;97480.91;;;30.39;43.68
72210;BME280;60113;48.762;12.302;2023-09-08T12:49:41;97485.25;;;29.75;42.54
72210;BME280;60113;48.762;12.302;2023-09-08T12:52:16;97492.41;;;29.57;43.88
72210;BME280;60113;48.762;12.302;2023-09-08T12:54:50;97479.19;;;29.49;44.45
72210;BME280;60113;48.762;12.302;2023-09-08T12:57:18;97483.94;;;29.66;44.75
72210;BME280;60113;48.762;12.302;2023-09-08T12:59:43;97481.44;;;29.88;43.98
72210;BME280;60113;48.762;12.302;2023-09-08T13:02:24;97482.69;;;30.10;44.43
72210;BME280;60113;48.762;12.302;2023-09-08T13:04:52;97482.38;;;29.82;43.52
72210;BME280;60113;48.762;12.302;2023-09-08T13:07:18;97477.22;;;29.92;43.87
72210;BME280;60113;48.762;12.302;2023-09-08T13:09:49;97479.53;;;30.01;44.02
72210;BME280;60113;48.762;12.302;2023-09-08T13:12:19;97471.38;;;30.13;43.74
72210;BME280;60113;48.762;12.302;2023-09-08T13:14:53;97476.44;;;30.33;44.13
72210;BME280;60113;48.762;12.302;2023-09-08T13:17:21;97473.78;;;30.50;43.46
72210;BME280;60113;48.762;12.302;2023-09-08T13:20:05;97474.94;;;30.13;42.92
72210;BME280;60113;48.762;12.302;2023-09-08T13:22:31;97469.16;;;30.10;44.00